createdAt,value
2018-11-10T00:00:14.819Z,100975.29
2018-11-10T00:02:42.505Z,100971.84
2018-11-10T00:05:10.117Z,100969.21
2018-11-10T00:07:37.732Z,100969.63
2018-11-10T00:10:05.440Z,100959.16
2018-11-10T00:12:33.108Z,100956.94
2018-11-10T00:15:00.845Z,100950.01
2018-11-10T00:17:28.489Z,100940.89
2018-11-10T00:19:56.076Z,100933.03
2018-11-10T00:22:23.855Z,100938.27
2018-11-10T00:24:51.444Z,100941.30
2018-11-10T00:27:19.120Z,100947.84
2018-11-10T00:29:47.626Z,100939.20
2018-11-10T00:32:15.219Z,100944.84
2018-11-10T00:34:42.927Z,100935.27
2018-11-10T00:37:10.510Z,100930.49
2018-11-10T00:39:38.167Z,100920.45
2018-11-10T00:42:06.374Z,100920.05
2018-11-10T00:44:33.936Z,100928.33
2018-11-10T00:47:01.568Z,100926.13
2018-11-10T00:49:29.156Z,100927.00
2018-11-10T00:51:56.750Z,100918.72
2018-11-10T00:54:24.408Z,100924.81
2018-11-10T00:56:52.057Z,100916.12
2018-11-10T00:59:20.190Z,100919.53
2018-11-10T01:01:47.848Z,100909.55
2018-11-10T01:04:15.504Z,100908.27
2018-11-10T01:06:43.158Z,100898.25
2018-11-10T01:09:10.960Z,100898.23
2018-11-10T01:11:38.625Z,100893.89
2018-11-10T01:14:06.786Z,100892.99
2018-11-10T01:16:34.416Z,100891.25
2018-11-10T01:19:02.061Z,100887.78
2018-11-10T01:21:29.712Z,100883.42
2018-11-10T01:23:57.394Z,100876.02
2018-11-10T01:26:24.983Z,100881.23
2018-11-10T01:28:52.623Z,100878.19
2018-11-10T01:31:20.231Z,100876.47
2018-11-10T01:33:48.009Z,100872.09
2018-11-10T01:36:15.610Z,100870.79
2018-11-10T01:38:43.252Z,100863.79
2018-11-10T01:41:10.862Z,100858.97
2018-11-10T01:43:38.461Z,100862.44
2018-11-10T01:46:06.072Z,100862.88
2018-11-10T01:48:33.687Z,100855.45
2018-11-10T01:51:01.425Z,100858.14
2018-11-10T01:53:28.996Z,100844.20
2018-11-10T01:55:56.597Z,100838.92
2018-11-10T01:58:24.255Z,100831.12
2018-11-10T02:00:51.832Z,100832.81
2018-11-10T02:03:19.467Z,100833.30
2018-11-10T02:05:47.044Z,100832.84
2018-11-10T02:08:14.696Z,100824.55
2018-11-10T02:10:42.340Z,100824.98
2018-11-10T02:13:09.940Z,100821.06
2018-11-10T02:15:37.652Z,100811.95
2018-11-10T02:18:05.619Z,100812.39
2018-11-10T02:20:33.271Z,100814.13
2018-11-10T02:23:00.876Z,100812.83
2018-11-10T02:25:28.744Z,100814.98
2018-11-10T02:27:56.404Z,100808.84
2018-11-10T02:30:23.983Z,100795.38
2018-11-10T02:32:51.572Z,100793.64
2018-11-10T02:35:19.247Z,100791.02
2018-11-10T02:37:46.822Z,100786.66
2018-11-10T02:40:15.061Z,100794.07
2018-11-10T02:42:43.111Z,100784.91
2018-11-10T02:45:12.387Z,100788.41
2018-11-10T02:47:40.064Z,100779.67
2018-11-10T02:50:07.712Z,100782.70
2018-11-10T02:52:35.592Z,100774.03
2018-11-10T02:55:03.323Z,100772.25
2018-11-10T02:57:30.976Z,100770.56
2018-11-10T02:59:58.555Z,100772.77
2018-11-10T03:02:26.205Z,100766.23
2018-11-10T03:04:53.789Z,100755.77
2018-11-10T03:07:21.582Z,100745.73
2018-11-10T03:09:49.200Z,100753.55
2018-11-10T03:12:16.812Z,100744.39
2018-11-10T03:14:44.370Z,100750.94
2018-11-10T03:17:12.064Z,100746.58
2018-11-10T03:19:39.885Z,100740.85
2018-11-10T03:22:07.508Z,100730.84
2018-11-10T03:24:35.111Z,100731.69
2018-11-10T03:27:02.752Z,100731.31
2018-11-10T03:29:30.413Z,100727.41
2018-11-10T03:31:58.019Z,100726.08
2018-11-10T03:34:25.758Z,100723.92
2018-11-10T03:36:53.386Z,100720.02
2018-11-10T03:39:21.021Z,100722.13
2018-11-10T03:41:48.643Z,100710.84
2018-11-10T03:44:16.298Z,100703.48
2018-11-10T03:46:43.939Z,100703.42
2018-11-10T03:49:11.544Z,100700.38
2018-11-10T03:51:39.157Z,100694.67
2018-11-10T03:54:07.003Z,100697.75
2018-11-10T03:56:34.634Z,100700.40
2018-11-10T03:59:02.287Z,100696.06
2018-11-10T04:01:29.932Z,100697.78
2018-11-10T04:03:57.556Z,100696.47
2018-11-10T04:06:25.200Z,100692.55
2018-11-10T04:08:52.925Z,100681.70
2018-11-10T04:11:20.589Z,100686.01
2018-11-10T04:13:48.199Z,100692.08
2018-11-10T04:16:15.884Z,100683.82
2018-11-10T04:18:43.576Z,100693.39
2018-11-10T04:21:11.229Z,100677.77
2018-11-10T04:23:38.996Z,100683.84
2018-11-10T04:26:06.660Z,100681.23
2018-11-10T04:28:34.243Z,100670.36
2018-11-10T04:31:01.853Z,100667.30
2018-11-10T04:33:29.536Z,100655.53
2018-11-10T04:35:57.164Z,100658.98
2018-11-10T04:38:24.849Z,100662.89
2018-11-10T04:40:52.482Z,100657.22
2018-11-10T04:43:20.069Z,100657.25
2018-11-10T04:45:47.708Z,100651.58
2018-11-10T04:48:15.383Z,100652.39
2018-11-10T04:50:42.963Z,100651.09
2018-11-10T04:53:10.605Z,100647.59
2018-11-10T04:55:38.232Z,100637.63
2018-11-10T04:58:05.802Z,100639.34
2018-11-10T05:00:33.439Z,100636.26
2018-11-10T05:03:01.058Z,100636.26
2018-11-10T05:05:28.663Z,100633.64
2018-11-10T05:07:56.305Z,100622.70
2018-11-10T05:10:23.896Z,100620.59
2018-11-10T05:12:51.549Z,100614.88
2018-11-10T05:15:19.180Z,100615.35
2018-11-10T05:17:46.836Z,100617.45
2018-11-10T05:20:14.577Z,100615.23
2018-11-10T05:22:42.184Z,100608.26
2018-11-10T05:25:10.638Z,100614.80
2018-11-10T05:27:38.293Z,100614.39
2018-11-10T05:30:06.477Z,100613.95
2018-11-10T05:32:34.131Z,100612.64
2018-11-10T05:35:01.845Z,100602.62
2018-11-10T05:37:29.456Z,100608.23
2018-11-10T05:39:57.048Z,100599.87
2018-11-10T05:42:24.680Z,100603.37
2018-11-10T05:44:52.259Z,100596.83
2018-11-10T05:47:19.914Z,100598.55
2018-11-10T05:49:47.476Z,100587.67
2018-11-10T05:52:15.115Z,100601.56
2018-11-10T05:54:42.736Z,100599.33
2018-11-10T05:57:10.362Z,100595.41
2018-11-10T05:59:37.979Z,100592.78
2018-11-10T06:02:05.737Z,100597.15
2018-11-10T06:04:33.353Z,100598.02
2018-11-10T06:07:00.945Z,100592.32
2018-11-10T06:09:28.641Z,100593.22
2018-11-10T06:11:56.214Z,100583.63
2018-11-10T06:14:23.791Z,100588.42
2018-11-10T06:16:51.431Z,100582.28
2018-11-10T06:19:19.039Z,100575.25
2018-11-10T06:21:46.617Z,100572.63
2018-11-10T06:24:14.285Z,100574.38
2018-11-10T06:26:41.927Z,100579.11
2018-11-10T06:29:09.683Z,100569.55
2018-11-10T06:31:37.285Z,100573.00
2018-11-10T06:34:05.241Z,100575.13
2018-11-10T06:36:32.888Z,100571.20
2018-11-10T06:39:00.489Z,100562.91
2018-11-10T06:41:28.137Z,100563.28
2018-11-10T06:43:55.684Z,100577.21
2018-11-10T06:46:23.296Z,100557.64
2018-11-10T06:48:50.959Z,100551.97
2018-11-10T06:51:18.593Z,100544.95
2018-11-10T06:53:46.208Z,100534.48
2018-11-10T06:56:13.766Z,100529.66
2018-11-10T06:58:41.403Z,100543.62
2018-11-10T07:01:09.020Z,100544.45
2018-11-10T07:03:36.669Z,100539.59
2018-11-10T07:06:04.511Z,100544.83
2018-11-10T07:08:32.102Z,100547.92
2018-11-10T07:10:59.748Z,100553.16
2018-11-10T07:13:27.402Z,100555.77
2018-11-10T07:15:58.656Z,100549.63
2018-11-10T07:18:26.232Z,100557.89
2018-11-10T07:20:53.864Z,100549.13
2018-11-10T07:23:21.652Z,100555.27
2018-11-10T07:25:49.326Z,100547.79
2018-11-10T07:28:16.949Z,100546.95
2018-11-10T07:30:44.598Z,100545.14
2018-11-10T07:33:12.218Z,100542.52
2018-11-10T07:35:39.824Z,100540.38
2018-11-10T07:38:07.427Z,100548.60
2018-11-10T07:40:35.052Z,100539.88
2018-11-10T07:43:02.716Z,100545.14
2018-11-10T07:45:30.294Z,100542.05
2018-11-10T07:47:57.929Z,100540.31
2018-11-10T07:50:25.551Z,100544.30
2018-11-10T07:52:53.158Z,100542.09
2018-11-10T07:55:20.792Z,100539.91
2018-11-10T07:57:48.401Z,100538.13
2018-11-10T08:00:17.155Z,100538.53
2018-11-10T08:02:44.835Z,100534.60
2018-11-10T08:05:12.953Z,100533.27
2018-11-10T08:07:41.409Z,100528.02
2018-11-10T08:10:09.494Z,100527.09
2018-11-10T08:12:37.497Z,100528.39
2018-11-10T08:15:07.260Z,100537.09
2018-11-10T08:17:34.820Z,100532.73
2018-11-10T08:20:02.453Z,100534.04
2018-11-10T08:22:30.110Z,100546.23
2018-11-10T08:24:57.808Z,100547.09
2018-11-10T08:27:25.415Z,100540.08
2018-11-10T08:29:53.011Z,100541.83
2018-11-10T08:32:20.676Z,100542.67
2018-11-10T08:34:48.236Z,100541.80
2018-11-10T08:37:15.861Z,100538.70
2018-11-10T08:39:43.469Z,100530.45
2018-11-10T08:42:11.085Z,100534.78
2018-11-10T08:44:38.672Z,100533.06
2018-11-10T08:47:06.742Z,100543.04
2018-11-10T08:49:34.350Z,100539.98
2018-11-10T08:52:01.935Z,100540.86
2018-11-10T08:54:29.584Z,100544.31
2018-11-10T08:56:57.140Z,100549.59
2018-11-10T08:59:24.801Z,100530.85
2018-11-10T09:01:52.392Z,100532.56
2018-11-10T09:04:20.047Z,100538.14
2018-11-10T09:06:47.673Z,100540.69
2018-11-10T09:09:15.268Z,100536.73
2018-11-10T09:11:42.894Z,100535.80
2018-11-10T09:14:10.657Z,100538.34
2018-11-10T09:16:38.288Z,100528.27
2018-11-10T09:19:05.896Z,100524.67
2018-11-10T09:21:33.494Z,100525.08
2018-11-10T09:24:01.131Z,100523.33
2018-11-10T09:26:28.761Z,100525.84
2018-11-10T09:28:56.362Z,100538.98
2018-11-10T09:31:24.017Z,100546.03
2018-11-10T09:33:51.744Z,100554.30
2018-11-10T09:36:19.425Z,100562.16
2018-11-10T09:38:47.064Z,100558.23
2018-11-10T09:41:14.644Z,100562.56
2018-11-10T09:43:42.251Z,100556.92
2018-11-10T09:46:09.897Z,100551.27
2018-11-10T09:48:37.444Z,100555.20
2018-11-10T09:51:05.078Z,100545.53
2018-11-10T09:53:32.708Z,100538.11
2018-11-10T09:56:00.321Z,100538.51
2018-11-10T09:58:27.970Z,100538.08
2018-11-10T10:00:55.642Z,100532.36
2018-11-10T10:03:23.267Z,100527.59
2018-11-10T10:05:50.892Z,100527.12
2018-11-10T10:08:18.525Z,100530.62
2018-11-10T10:10:46.126Z,100520.58
2018-11-10T10:13:13.727Z,100520.13
2018-11-10T10:15:41.356Z,100517.01
2018-11-10T10:18:09.033Z,100519.13
2018-11-10T10:20:36.607Z,100523.45
2018-11-10T10:23:04.479Z,100519.52
2018-11-10T10:25:32.100Z,100526.48
2018-11-10T10:27:59.716Z,100508.10
2018-11-10T10:30:27.361Z,100512.50
2018-11-10T10:32:55.021Z,100508.54
2018-11-10T10:35:22.971Z,100511.63
2018-11-10T10:37:51.169Z,100514.61
2018-11-10T10:40:18.780Z,100514.14
2018-11-10T10:42:46.906Z,100514.11
2018-11-10T10:45:19.808Z,100510.14
2018-11-10T10:47:47.432Z,100506.17
2018-11-10T10:50:16.206Z,100505.70
2018-11-10T10:52:43.904Z,100506.14
2018-11-10T10:55:12.892Z,100510.00
2018-11-10T10:57:40.733Z,100511.27
2018-11-10T11:00:14.581Z,100505.16
2018-11-10T11:02:54.498Z,100506.39
2018-11-10T11:05:27.697Z,100506.39
2018-11-10T11:07:55.634Z,100498.09
2018-11-10T11:10:23.501Z,100499.37
2018-11-10T11:12:51.113Z,100495.44
2018-11-10T11:15:18.800Z,100498.02
2018-11-10T11:17:46.692Z,100496.17
2018-11-10T11:20:14.406Z,100497.44
2018-11-10T11:22:42.431Z,100494.31
2018-11-10T11:25:10.069Z,100498.20
2018-11-10T11:27:37.712Z,100499.98
2018-11-10T11:30:06.392Z,100501.30
2018-11-10T11:32:34.068Z,100495.95
2018-11-10T11:35:01.704Z,100497.30
2018-11-10T11:37:29.437Z,100496.45
2018-11-10T11:39:57.031Z,100494.27
2018-11-10T11:42:24.741Z,100496.45
2018-11-10T11:44:52.386Z,100493.91
2018-11-10T11:47:20.123Z,100504.83
2018-11-10T11:49:47.833Z,100506.11
2018-11-10T11:52:15.405Z,100504.43
2018-11-10T11:54:43.029Z,100508.83
2018-11-10T11:57:10.648Z,100511.86
2018-11-10T11:59:38.327Z,100507.52
2018-11-10T12:02:05.946Z,100505.74
2018-11-10T12:04:33.497Z,100504.91
2018-11-10T12:07:01.111Z,100504.91
2018-11-10T12:09:28.747Z,100504.06
2018-11-10T12:11:56.340Z,100503.16
2018-11-10T12:14:23.996Z,100509.31
2018-11-10T12:16:51.671Z,100508.91
2018-11-10T12:19:19.295Z,100505.89
2018-11-10T12:21:46.956Z,100506.28
2018-11-10T12:24:14.587Z,100504.98
2018-11-10T12:26:42.311Z,100498.46
2018-11-10T12:29:09.916Z,100500.17
2018-11-10T12:31:37.556Z,100504.14
2018-11-10T12:34:05.658Z,100495.44
2018-11-10T12:36:33.248Z,100496.34
2018-11-10T12:39:00.981Z,100505.96
2018-11-10T12:41:28.535Z,100504.65
2018-11-10T12:43:56.149Z,100511.60
2018-11-10T12:46:23.881Z,100508.98
2018-11-10T12:48:51.527Z,100509.81
2018-11-10T12:51:19.153Z,100513.75
2018-11-10T12:53:46.743Z,100513.75
2018-11-10T12:56:14.370Z,100509.38
2018-11-10T12:58:41.980Z,100504.61
2018-11-10T13:01:09.544Z,100509.38
2018-11-10T13:03:37.184Z,100514.73
2018-11-10T13:06:05.073Z,100514.33
2018-11-10T13:08:32.674Z,100514.77
2018-11-10T13:11:00.340Z,100516.88
2018-11-10T13:13:27.957Z,100514.73
2018-11-10T13:15:57.247Z,100522.19
2018-11-10T13:18:24.888Z,100514.33
2018-11-10T13:20:52.529Z,100516.05
2018-11-10T13:23:20.146Z,100517.35
2018-11-10T13:25:47.772Z,100517.39
2018-11-10T13:28:15.355Z,100512.58
2018-11-10T13:30:43.059Z,100516.11
2018-11-10T13:33:10.678Z,100521.32
2018-11-10T13:35:38.328Z,100517.83
2018-11-10T13:38:06.077Z,100510.80
2018-11-10T13:40:33.640Z,100504.69
2018-11-10T13:43:01.342Z,100506.87
2018-11-10T13:45:28.994Z,100504.69
2018-11-10T13:47:56.576Z,100510.80
2018-11-10T13:50:24.218Z,100513.42
2018-11-10T13:52:52.248Z,100512.14
2018-11-10T13:55:19.655Z,100512.58
2018-11-10T13:57:47.288Z,100517.42
2018-11-10T14:00:16.444Z,100518.30
2018-11-10T14:02:44.121Z,100523.10
2018-11-10T14:05:12.347Z,100525.72
2018-11-10T14:07:40.284Z,100515.71
2018-11-10T14:10:09.727Z,100520.05
2018-11-10T14:12:37.551Z,100527.50
2018-11-10T14:15:05.216Z,100521.36
2018-11-10T14:17:32.796Z,100514.80
2018-11-10T14:20:00.578Z,100519.17
2018-11-10T14:22:28.188Z,100521.79
2018-11-10T14:24:55.940Z,100517.46
2018-11-10T14:27:23.574Z,100524.41
2018-11-10T14:29:51.206Z,100521.79
2018-11-10T14:32:18.964Z,100525.28
2018-11-10T14:34:46.608Z,100528.34
2018-11-10T14:37:14.227Z,100528.41
2018-11-10T14:39:41.872Z,100523.58
2018-11-10T14:42:09.537Z,100525.80
2018-11-10T14:44:37.143Z,100529.73
2018-11-10T14:47:04.742Z,100525.36
2018-11-10T14:49:32.507Z,100525.42
2018-11-10T14:52:00.149Z,100529.36
2018-11-10T14:54:27.739Z,100530.67
2018-11-10T14:56:55.435Z,100533.29
2018-11-10T14:59:23.056Z,100535.55
2018-11-10T15:01:50.709Z,100530.70
2018-11-10T15:04:18.296Z,100543.84
2018-11-10T15:06:46.015Z,100546.02
2018-11-10T15:09:13.819Z,100544.75
2018-11-10T15:11:41.581Z,100553.55
2018-11-10T15:14:09.167Z,100547.88
2018-11-10T15:16:36.883Z,100551.81
2018-11-10T15:19:04.864Z,100553.98
2018-11-10T15:21:32.543Z,100550.97
2018-11-10T15:24:00.196Z,100562.36
2018-11-10T15:26:27.848Z,100558.42
2018-11-10T15:28:55.536Z,100557.95
2018-11-10T15:31:23.154Z,100567.59
2018-11-10T15:33:50.771Z,100563.23
2018-11-10T15:36:18.515Z,100565.01
2018-11-10T15:38:46.115Z,100561.88
2018-11-10T15:41:13.802Z,100553.66
2018-11-10T15:43:41.446Z,100559.37
2018-11-10T15:46:09.120Z,100557.19
2018-11-10T15:48:36.772Z,100555.47
2018-11-10T15:51:04.577Z,100556.78
2018-11-10T15:53:32.207Z,100557.25
2018-11-10T15:55:59.965Z,100565.98
2018-11-10T15:58:27.648Z,100555.47
2018-11-10T16:00:55.328Z,100559.88
2018-11-10T16:03:23.020Z,100558.56
2018-11-10T16:05:50.663Z,100555.94
2018-11-10T16:08:18.343Z,100555.10
2018-11-10T16:10:45.947Z,100557.25
2018-11-10T16:13:13.572Z,100559.47
2018-11-10T16:15:41.149Z,100564.27
2018-11-10T16:18:08.936Z,100562.09
2018-11-10T16:20:36.624Z,100559.88
2018-11-10T16:23:04.367Z,100565.14
2018-11-10T16:25:32.144Z,100564.30
2018-11-10T16:27:59.756Z,100562.66
2018-11-10T16:30:27.378Z,100559.09
2018-11-10T16:32:55.056Z,100562.63
2018-11-10T16:35:22.720Z,100563.03
2018-11-10T16:37:50.291Z,100563.87
2018-11-10T16:40:19.133Z,100563.43
2018-11-10T16:42:47.446Z,100562.16
2018-11-10T16:45:15.871Z,100560.00
2018-11-10T16:47:43.474Z,100561.75
2018-11-10T16:50:11.380Z,100561.34
2018-11-10T16:52:39.681Z,100563.50
2018-11-10T16:55:07.614Z,100569.64
2018-11-10T16:57:35.179Z,100562.25
2018-11-10T17:00:02.880Z,100560.00
2018-11-10T17:02:30.543Z,100554.80
2018-11-10T17:04:58.233Z,100562.19
2018-11-10T17:07:25.899Z,100558.26
2018-11-10T17:09:53.543Z,100556.11
2018-11-10T17:12:21.281Z,100553.52
2018-11-10T17:14:48.922Z,100552.62
2018-11-10T17:17:16.511Z,100546.98
2018-11-10T17:19:44.196Z,100542.17
2018-11-10T17:22:11.874Z,100547.84
2018-11-10T17:24:39.472Z,100542.17
2018-11-10T17:27:07.257Z,100545.70
2018-11-10T17:29:34.886Z,100540.06
2018-11-10T17:32:02.536Z,100540.96
2018-11-10T17:34:30.312Z,100541.36
2018-11-10T17:36:58.095Z,100535.22
2018-11-10T17:39:25.805Z,100535.22
2018-11-10T17:41:53.364Z,100531.29
2018-11-10T17:44:21.124Z,100535.66
2018-11-10T17:46:48.705Z,100526.48
2018-11-10T17:49:16.486Z,100520.84
2018-11-10T17:51:44.095Z,100526.09
2018-11-10T17:54:11.680Z,100526.05
2018-11-10T17:56:39.419Z,100518.63
2018-11-10T17:59:07.536Z,100517.80
2018-11-10T18:01:35.317Z,100516.52
2018-11-10T18:04:03.281Z,100515.20
2018-11-10T18:06:30.868Z,100519.54
2018-11-10T18:08:58.690Z,100509.97
2018-11-10T18:11:26.373Z,100516.55
2018-11-10T18:13:54.003Z,100512.22
2018-11-10T18:16:21.665Z,100506.08
2018-11-10T18:18:49.435Z,100507.34
2018-11-10T18:21:17.018Z,100498.69
2018-11-10T18:23:44.648Z,100498.72
2018-11-10T18:26:12.307Z,100502.55
2018-11-10T18:28:39.905Z,100496.47
2018-11-10T18:31:07.588Z,100498.61
2018-11-10T18:33:35.203Z,100500.36
2018-11-10T18:36:02.872Z,100509.53
2018-11-10T18:38:30.541Z,100512.19
2018-11-10T18:40:58.181Z,100519.17
2018-11-10T18:43:25.811Z,100516.15
2018-11-10T18:45:53.477Z,100519.57
2018-11-10T18:48:21.087Z,100511.31
2018-11-10T18:50:48.707Z,100514.33
2018-11-10T18:53:16.405Z,100509.59
2018-11-10T18:55:44.013Z,100503.48
2018-11-10T18:58:11.729Z,100505.67
2018-11-10T19:00:39.434Z,100507.89
2018-11-10T19:03:07.070Z,100507.45
2018-11-10T19:05:34.721Z,100501.34
2018-11-10T19:08:02.335Z,100500.43
2018-11-10T19:10:29.980Z,100489.95
2018-11-10T19:12:57.660Z,100490.39
2018-11-10T19:15:25.291Z,100483.84
2018-11-10T19:17:53.036Z,100485.59
2018-11-10T19:20:20.667Z,100488.24
2018-11-10T19:22:48.242Z,100486.42
2018-11-10T19:25:15.984Z,100486.93
2018-11-10T19:27:43.542Z,100497.81
2018-11-10T19:30:17.126Z,100484.72
2018-11-10T19:32:45.496Z,100489.92
2018-11-10T19:35:13.438Z,100483.41
2018-11-10T19:37:41.201Z,100499.92
2018-11-10T19:40:09.637Z,100501.70
2018-11-10T19:42:37.417Z,100489.45
2018-11-10T19:45:06.064Z,100487.73
2018-11-10T19:47:33.778Z,100485.95
2018-11-10T19:50:01.418Z,100490.36
2018-11-10T19:52:29.080Z,100494.79
2018-11-10T19:54:56.760Z,100493.02
2018-11-10T19:57:24.394Z,100489.55
2018-11-10T19:59:52.210Z,100490.42
2018-11-10T20:02:19.926Z,100499.19
2018-11-10T20:04:47.531Z,100497.84
2018-11-10T20:07:15.149Z,100500.90
2018-11-10T20:09:42.867Z,100500.50
2018-11-10T20:12:10.505Z,100500.43
2018-11-10T20:14:38.094Z,100499.56
2018-11-10T20:17:05.768Z,100501.73
2018-11-10T20:19:33.428Z,100502.64
2018-11-10T20:22:01.088Z,100496.53
2018-11-10T20:24:28.872Z,100491.73
2018-11-10T20:26:56.464Z,100495.22
2018-11-10T20:29:24.071Z,100494.31
2018-11-10T20:31:51.742Z,100498.22
2018-11-10T20:34:19.469Z,100498.22
2018-11-10T20:36:47.101Z,100490.36
2018-11-10T20:39:14.748Z,100490.76
2018-11-10T20:41:42.429Z,100496.91
2018-11-10T20:46:44.238Z,100506.08
2018-11-10T20:49:11.905Z,100497.41
2018-11-10T20:51:39.526Z,100498.28
2018-11-10T20:54:07.489Z,100497.41
2018-11-10T20:56:35.137Z,100489.08
2018-11-10T20:59:02.715Z,100490.42
2018-11-10T21:01:30.414Z,100500.43
2018-11-10T21:03:58.036Z,100503.48
2018-11-10T21:06:25.763Z,100503.45
2018-11-10T21:08:53.395Z,100496.09
2018-11-10T21:11:21.083Z,100490.42
2018-11-10T21:13:48.784Z,100490.42
2018-11-10T21:16:16.409Z,100500.90
2018-11-10T21:18:44.041Z,100500.03
2018-11-10T21:21:11.750Z,100494.35
2018-11-10T21:23:39.416Z,100498.72
2018-11-10T21:26:07.053Z,100497.87
2018-11-10T21:28:34.745Z,100499.66
2018-11-10T21:31:02.383Z,100500.50
2018-11-10T21:33:30.121Z,100504.02
2018-11-10T21:35:57.729Z,100497.48
2018-11-10T21:38:25.362Z,100493.14
2018-11-10T21:40:53.065Z,100484.89
2018-11-10T21:43:20.720Z,100483.58
2018-11-10T21:45:49.136Z,100491.84
2018-11-10T21:48:16.782Z,100489.66
2018-11-10T21:50:44.384Z,100491.44
2018-11-10T21:53:11.977Z,100479.18
2018-11-10T21:55:39.632Z,100484.89
2018-11-10T21:58:07.206Z,100485.33
2018-11-10T22:00:34.844Z,100471.79
2018-11-10T22:03:02.484Z,100469.64
2018-11-10T22:05:30.142Z,100476.19
2018-11-10T22:07:57.893Z,100472.19
2018-11-10T22:10:25.539Z,100473.09
2018-11-10T22:12:53.143Z,100480.05
2018-11-10T22:15:21.978Z,100470.02
2018-11-10T22:17:49.863Z,100477.50
2018-11-10T22:20:18.805Z,100491.91
2018-11-10T22:22:46.520Z,100490.56
2018-11-10T22:25:14.605Z,100482.34
2018-11-10T22:27:43.487Z,100488.02
2018-11-10T22:30:13.056Z,100495.03
2018-11-10T22:32:41.097Z,100493.25
2018-11-10T22:35:09.425Z,100491.10
2018-11-10T22:37:37.437Z,100491.10
2018-11-10T22:40:06.510Z,100497.17
2018-11-10T22:42:34.648Z,100490.23
2018-11-10T22:45:02.332Z,100487.20
2018-11-10T22:47:29.955Z,100488.55
2018-11-10T22:49:57.636Z,100485.49
2018-11-10T22:52:25.413Z,100489.36
2018-11-10T22:54:52.987Z,100488.52
2018-11-10T22:57:20.771Z,100487.64
2018-11-10T22:59:48.394Z,100478.51
2018-11-10T23:02:16.004Z,100482.00
2018-11-10T23:04:43.629Z,100479.78
2018-11-10T23:07:11.347Z,100478.08
2018-11-10T23:09:38.894Z,100478.98
2018-11-10T23:12:06.529Z,100477.23
2018-11-10T23:14:34.225Z,100478.51
2018-11-10T23:17:01.848Z,100487.23
2018-11-10T23:19:29.416Z,100484.63
2018-11-10T23:21:57.025Z,100482.91
2018-11-10T23:24:24.636Z,100488.62
2018-11-10T23:26:52.267Z,100483.84
2018-11-10T23:29:19.829Z,100484.25
2018-11-10T23:31:47.560Z,100491.23
2018-11-10T23:34:15.381Z,100493.45
2018-11-10T23:36:42.988Z,100493.45
2018-11-10T23:39:12.145Z,100492.95
2018-11-10T23:41:40.471Z,100499.49
2018-11-10T23:44:08.760Z,100498.62
2018-11-10T23:46:36.819Z,100502.55
2018-11-10T23:49:04.646Z,100502.98
2018-11-10T23:51:32.330Z,100506.48
2018-11-10T23:53:59.957Z,100504.33
2018-11-10T23:56:27.528Z,100503.42
2018-11-10T23:58:55.204Z,100496.06
